Latest Weather Observations for Tuggeranong

IDN60801

Issued at 6:32 pm EDT Monday 20 November 2017 (issued every 30 minutes, with the page automatically refreshed every 10 minutes)

About weather observations | Map of weather stations | Latest weather observations for NSW | Other Formats
Station Details ID: 070339 Name: TUGGERANONG (ISABELLA PLAINS) AWS Lat: -35.42 Lon: 149.09 Height: 586.7 m
Data from the previous 72 hours. | See also: Recent months at Tuggeranong
Date/Time
EDT
Temp
°C
App
Temp
°C
Dew
Point
°C
Rel
Hum
%
Delta-T
°C
Wind Press
QNH
hPa
Press
MSL
hPa
Rain since
9am
mm
Dir  Spd
km/h
Gust
km/h
Spd
kts
Gust
kts
20/06:30pm 23.6 20.8 8.5 38 8.2 E 13 20 7 11 1023.2 1021.5 0.0
20/06:00pm 23.9 20.7 8.3 37 8.5 ENE 15 24 8 13 1023.0 1021.3 0.0
20/05:30pm 24.7 22.0 9.0 37 8.7 E 13 24 7 13 1022.9 1021.2 0.0
20/05:00pm 24.7 21.9 8.6 36 8.9 E 13 22 7 12 1023.1 1021.4 0.0
20/04:30pm 24.8 23.1 9.9 39 8.4 ENE 9 19 5 10 1023.2 1021.5 0.0
20/04:00pm 24.3 20.8 7.4 34 9.1 NE 15 28 8 15 1023.4 1021.7 0.0
20/03:30pm 24.2 21.3 8.2 36 8.8 NE 13 28 7 15 1023.6 1021.9 0.0
20/03:00pm 24.3 20.9 9.1 38 8.4 NNE 17 26 9 14 1023.9 1022.2 0.0
20/02:30pm 23.6 21.2 8.8 39 8.2 ENE 11 20 6 11 1024.4 1022.8 0.0
20/02:00pm 23.9 21.9 10.2 42 7.7 NW 11 24 6 13 1024.6 1023.0 0.0
20/01:30pm 22.6 20.4 9.4 43 7.3 ESE 11 20 6 11 1025.2 1023.5 0.0
20/01:00pm 21.9 20.2 9.8 46 6.7 ESE 9 19 5 10 1025.6 1024.0 0.0
20/12:30pm 21.1 19.9 10.3 50 6.0 ESE 7 17 4 9 1026.0 1024.4 0.0
20/12:00pm 20.8 19.6 10.3 51 5.8 NE 7 13 4 7 1026.1 1024.5 0.0
20/11:30am 19.9 18.1 9.5 51 5.7 NNE 9 19 5 10 1026.3 1024.7 0.0
20/11:00am 19.4 17.7 9.9 54 5.2 ENE 9 17 5 9 1026.8 1025.1 0.0
20/10:30am 18.6 16.2 8.8 53 5.3 ESE 11 20 6 11 1027.0 1025.3 0.0
20/10:00am 17.5 16.3 9.4 59 4.3 ESE 6 13 3 7 1027.0 1025.3 0.0
20/09:30am 16.7 14.2 8.4 58 4.4 ESE 11 17 6 9 1027.1 1025.5 0.0
20/09:00am 16.2 14.6 8.9 62 3.8 ENE 7 15 4 8 1027.2 1025.6 0.0
20/08:30am 13.9 13.9 9.7 76 2.2 CALM 0 6 0 3 1027.2 1025.6 0.0
20/08:00am 12.1 12.4 11.0 93 0.6 CALM 0 0 0 0 1027.2 1025.6 0.0
20/07:30am 9.9 9.9 9.9 100 0.0 CALM 0 0 0 0 1026.9 1025.2 0.0
20/07:00am 8.0 7.5 7.9 99 0.0 CALM 0 0 0 0 1026.4 1024.8 0.0
20/06:30am 7.2 6.5 7.1 99 0.0 CALM 0 0 0 0 1026.2 1024.6 0.0
20/06:00am 6.9 6.2 6.8 99 0.0 CALM 0 0 0 0 1026.1 1024.5 0.0
20/05:30am 7.1 6.4 7.0 99 0.0 CALM 0 0 0 0 1025.8 1024.2 0.0
20/05:00am 7.8 7.3 7.7 99 0.0 CALM 0 0 0 0 1025.7 1024.1 0.0
20/04:30am 8.1 7.6 7.7 97 0.2 CALM 0 0 0 0 1025.8 1024.2 0.0
20/04:00am 8.5 8.1 8.1 97 0.2 CALM 0 0 0 0 1025.8 1024.2 0.0
20/03:30am 8.7 8.2 7.9 95 0.4 CALM 0 0 0 0 1025.7 1024.1 0.0
20/03:00am 9.4 9.1 8.6 95 0.4 CALM 0 0 0 0 1025.7 1024.1 0.0
20/02:30am 9.8 9.4 8.4 91 0.7 CALM 0 0 0 0 1025.7 1024.1 0.0
20/02:00am 11.0 9.8 9.4 90 0.8 E 6 7 3 4 1025.7 1024.1 0.0
20/01:30am 11.3 11.2 9.6 89 0.9 CALM 0 0 0 0 1025.8 1024.2 0.0
20/01:00am 11.7 11.6 9.3 85 1.2 CALM 0 7 0 4 1025.8 1024.2 0.0
20/12:30am 12.3 11.7 9.1 81 1.7 ESE 2 7 1 4 1026.1 1024.5 0.0
20/12:00am 13.5 12.3 9.7 78 2.0 ESE 6 9 3 5 1026.0 1024.4 0.0
 
Date/Time
EDT
Temp
°C
App
Temp
°C
Dew
Point
°C
Rel
Hum
%
Delta-T
°C
Wind Press
QNH
hPa
Press
MSL
hPa
Rain since
9am
mm
Dir  Spd
km/h
Gust
km/h
Spd
kts
Gust
kts
19/11:30pm 14.1 12.7 9.7 75 2.3 SSE 7 11 4 6 1025.9 1024.3 0.0
19/11:00pm 14.8 13.1 10.0 73 2.6 S 9 15 5 8 1025.8 1024.2 0.0
19/10:30pm 14.7 13.4 10.1 74 2.5 S 7 11 4 6 1026.0 1024.4 0.0
19/10:00pm 15.6 14.1 10.4 71 2.8 SE 9 17 5 9 1025.8 1024.2 0.0
19/09:30pm 16.0 14.1 10.5 70 3.0 SE 11 20 6 11 1025.5 1023.8 0.0
19/09:00pm 16.7 15.2 10.5 67 3.4 ESE 9 15 5 8 1025.0 1023.3 0.0
19/08:30pm 17.5 14.6 10.9 65 3.7 E 17 24 9 13 1024.6 1023.0 0.0
19/08:00pm 18.0 15.3 10.4 61 4.2 E 15 30 8 16 1024.2 1022.6 0.0
19/07:30pm 18.8 15.6 11.1 61 4.3 E 19 30 10 16 1023.7 1022.0 0.0
19/07:00pm 20.6 17.2 9.2 48 6.2 ENE 17 28 9 15 1023.3 1021.6 0.0
19/06:30pm 20.7 17.3 9.3 48 6.2 E 17 28 9 15 1023.0 1021.3 0.0
19/06:00pm 21.1 17.3 9.7 48 6.3 E 20 28 11 15 1022.7 1021.1 0.0
19/05:30pm 21.8 18.6 10.0 47 6.6 E 17 28 9 15 1022.6 1021.0 0.0
19/05:00pm 21.1 18.1 10.6 51 5.9 E 17 26 9 14 1022.6 1021.0 0.0
19/04:30pm 22.8 19.9 10.9 47 6.8 ESE 17 24 9 13 1022.6 1021.0 0.0
19/04:00pm 21.3 17.9 9.2 46 6.6 E 17 22 9 12 1022.9 1021.2 0.0
19/03:30pm 21.6 17.6 9.2 45 6.8 ESE 20 30 11 16 1023.1 1021.4 0.0
19/03:00pm 21.8 17.9 8.7 43 7.1 ENE 19 32 10 17 1023.3 1021.6 0.0
19/02:30pm 23.1 20.2 9.5 42 7.6 ENE 15 28 8 15 1023.4 1021.7 0.0
19/02:00pm 22.5 19.1 9.0 42 7.4 NE 17 26 9 14 1023.7 1022.0 0.0
19/01:30pm 22.2 18.2 8.3 41 7.5 ENE 19 28 10 15 1023.8 1022.1 0.0
19/01:00pm 21.5 17.2 7.0 39 7.6 NE 19 32 10 17 1023.9 1022.2 0.0
19/12:30pm 21.4 17.5 7.3 40 7.5 NE 17 24 9 13 1024.1 1022.5 0.0
19/12:00pm 21.0 17.4 8.3 44 6.8 ENE 17 32 9 17 1024.4 1022.8 0.0
19/11:30am 19.9 16.3 8.3 47 6.2 ENE 17 22 9 12 1024.6 1023.0 0.0
19/11:00am 19.5 15.3 7.3 45 6.4 ENE 19 32 10 17 1024.6 1023.0 0.0
19/10:30am 19.7 16.4 8.1 47 6.2 E 15 24 8 13 1024.5 1022.9 0.0
19/10:00am 18.5 15.7 7.0 47 5.9 ESE 11 20 6 11 1024.6 1023.0 0.0
19/09:30am 18.2 14.8 5.8 44 6.3 ENE 13 20 7 11 1024.8 1023.1 0.0
19/09:00am 17.1 13.8 6.6 50 5.3 ESE 13 20 7 11 1024.8 1023.1 1.6
19/08:30am 16.5 13.4 7.2 54 4.8 ESE 13 20 7 11 1024.6 1023.0 1.6
19/08:00am 15.9 13.4 8.2 60 4.0 SSE 11 17 6 9 1024.6 1023.0 1.6
19/07:30am 15.2 12.9 8.9 66 3.3 SE 11 19 6 10 1024.5 1022.9 1.6
19/07:00am 14.6 12.7 9.2 70 2.8 SE 9 15 5 8 1024.2 1022.6 1.6
19/06:30am 13.7 12.2 9.0 73 2.5 SE 7 13 4 7 1024.1 1022.5 1.6
19/06:00am 13.1 11.9 9.4 78 1.9 S 6 9 3 5 1023.9 1022.2 1.6
19/05:30am 12.9 12.8 9.5 80 1.8 CALM 0 0 0 0 1023.7 1022.0 1.6
19/05:00am 12.9 12.8 9.5 80 1.8 CALM 0 0 0 0 1023.3 1021.6 1.6
19/04:30am 13.5 12.0 9.2 75 2.3 ESE 7 9 4 5 1022.9 1021.2 1.6
19/04:00am 13.8 12.0 9.6 76 2.2 SE 9 11 5 6 1023.0 1021.3 1.6
19/03:30am 13.8 12.6 10.2 79 1.9 SE 7 7 4 4 1022.9 1021.2 1.6
19/03:00am 13.8 14.0 10.6 81 1.7 CALM 0 0 0 0 1023.1 1021.4 1.6
19/02:30am 14.1 13.8 10.1 77 2.1 SSE 2 7 1 4 1023.2 1021.5 1.6
19/02:00am 14.1 12.7 9.7 75 2.3 SSE 7 9 4 5 1023.1 1021.4 1.6
19/01:30am 14.1 13.2 10.5 79 1.9 S 6 9 3 5 1023.0 1021.3 1.6
19/01:00am 14.2 12.9 10.0 76 2.2 SE 7 11 4 6 1023.2 1021.5 1.6
19/12:30am 14.5 12.9 10.1 75 2.4 SE 9 11 5 6 1023.3 1021.6 1.6
19/12:00am 14.5 12.9 10.1 75 2.4 SE 9 11 5 6 1023.3 1021.6 1.6
 
Date/Time
EDT
Temp
°C
App
Temp
°C
Dew
Point
°C
Rel
Hum
%
Delta-T
°C
Wind Press
QNH
hPa
Press
MSL
hPa
Rain since
9am
mm
Dir  Spd
km/h
Gust
km/h
Spd
kts
Gust
kts
18/11:30pm 14.1 14.2 10.3 78 2.0 CALM 0 9 0 5 1023.1 1021.4 1.6
18/11:00pm 14.4 12.4 10.0 75 2.3 ESE 11 17 6 9 1022.9 1021.2 1.6
18/10:30pm 14.6 13.4 10.4 76 2.3 SE 7 13 4 7 1022.7 1021.1 1.6
18/10:00pm 15.0 13.5 10.6 75 2.4 ESE 9 13 5 7 1022.7 1021.1 1.6
18/09:30pm 15.3 14.2 10.7 74 2.5 ESE 7 11 4 6 1022.5 1020.8 1.6
18/09:00pm 15.5 14.0 10.7 73 2.6 ESE 9 13 5 7 1022.0 1020.3 1.6
18/08:30pm 16.0 14.2 10.7 71 2.9 E 11 17 6 9 1021.7 1020.0 1.6
18/08:00pm 16.6 13.7 10.9 69 3.1 E 17 24 9 13 1021.2 1019.5 1.6
18/07:30pm 17.0 14.9 11.1 68 3.3 E 13 17 7 9 1020.8 1019.1 1.6
18/07:00pm 17.5 15.0 11.1 66 3.6 E 15 24 8 13 1020.5 1018.8 1.6
18/06:30pm 17.9 15.6 11.9 68 3.4 E 15 28 8 15 1020.1 1018.4 1.6
18/06:00pm 17.3 16.7 13.6 79 2.1 ESE 9 13 5 7 1020.1 1018.4 1.6
18/05:30pm 16.5 15.6 13.8 84 1.6 ESE 11 15 6 8 1020.3 1018.6 1.6
18/05:00pm 16.3 13.8 13.4 83 1.7 E 19 26 10 14 1020.5 1018.8 1.6
18/04:30pm 16.4 15.7 14.2 87 1.3 ESE 11 22 6 12 1020.5 1018.8 1.6
18/04:00pm 17.8 16.1 12.5 71 3.0 ESE 13 20 7 11 1020.4 1018.7 1.2
18/03:30pm 17.8 14.4 12.5 71 3.0 E 22 35 12 19 1020.4 1018.7 1.2
18/03:00pm 17.6 14.7 12.9 74 2.7 ENE 20 33 11 18 1020.6 1018.9 1.2
18/02:30pm 17.4 14.2 13.1 76 2.5 E 22 35 12 19 1020.6 1018.9 1.2
18/02:00pm 17.8 16.1 14.7 82 1.8 ENE 17 30 9 16 1020.6 1018.9 1.0
18/01:30pm 17.0 14.8 13.3 79 2.1 ENE 17 24 9 13 1020.7 1019.0 1.0
18/01:00pm 17.4 15.0 12.5 73 2.8 ENE 17 26 9 14 1020.7 1019.0 1.0
18/12:30pm 17.9 16.7 12.8 72 2.9 E 11 26 6 14 1020.7 1019.0 0.8
18/12:00pm 17.0 16.3 13.3 79 2.1 SE 9 19 5 10 1020.8 1019.1 0.8
18/11:30am 16.3 14.8 13.2 82 1.8 ESE 13 19 7 10 1020.8 1019.1 0.8
18/11:00am 16.5 16.6 12.7 78 2.2 ENE 4 26 2 14 1020.8 1019.1 0.8
18/10:30am 16.3 16.0 13.2 82 1.8 S 7 11 4 6 1020.6 1018.9 0.8
18/10:00am 15.4 15.0 12.5 83 1.6 E 6 9 3 5 1020.7 1019.0 0.8
18/09:30am 15.8 14.0 12.0 78 2.1 E 13 24 7 13 1020.8 1019.1 0.0
18/09:00am 15.8 14.4 12.2 79 2.0 ESE 11 19 6 10 1020.7 1019.0 7.4
18/08:30am 15.6 14.7 12.5 82 1.8 ESE 9 13 5 7 1020.7 1019.0 7.4
18/08:00am 15.7 14.6 12.1 79 2.0 E 9 15 5 8 1020.5 1018.8 7.4
18/07:30am 15.9 15.0 11.5 75 2.4 E 7 11 4 6 1020.2 1018.5 7.2
18/07:00am 15.7 15.9 11.9 78 2.1 SE 2 7 1 4 1020.0 1018.3 7.2
18/06:30am 15.4 16.1 12.2 81 1.8 CALM 0 0 0 0 1019.9 1018.2 7.2
18/06:00am 15.4 14.6 11.8 79 2.0 ESE 7 11 4 6 1019.7 1018.0 7.2
18/05:30am 15.4 15.6 12.0 80 1.9 ENE 2 7 1 4 1019.3 1017.5 7.2
18/05:00am 15.4 14.6 11.8 79 2.0 E 7 11 4 6 1018.8 1017.1 7.2
18/04:30am 15.4 14.9 12.0 80 1.9 ESE 6 9 3 5 1018.7 1017.0 7.2
18/04:00am 15.4 14.8 12.2 81 1.8 ESE 7 11 4 6 1018.6 1016.9 7.2
18/03:30am 15.5 14.9 12.3 81 1.8 E 7 13 4 7 1018.9 1017.2 7.2
18/03:00am 15.3 15.5 13.0 86 1.3 NNE 4 9 2 5 1018.9 1017.2 7.2
18/02:30am 15.0 15.3 14.4 96 0.4 SSE 6 11 3 6 1019.3 1017.5 7.2
18/02:00am 14.7 16.0 14.1 96 0.3 CALM 0 0 0 0 1019.4 1017.6 7.2
18/01:30am 15.2 16.3 13.6 90 0.9 CALM 0 0 0 0 1019.7 1018.0 7.2
18/01:00am 15.8 15.0 12.9 83 1.6 ENE 9 15 5 8 1019.9 1018.2 7.0
18/12:30am 16.1 15.6 12.7 80 1.9 ENE 7 13 4 7 1020.0 1018.3 7.0
18/12:00am 15.9 16.1 13.2 84 1.5 E 4 11 2 6 1020.0 1018.3 7.0
 
Date/Time
EDT
Temp
°C
App
Temp
°C
Dew
Point
°C
Rel
Hum
%
Delta-T
°C
Wind Press
QNH
hPa
Press
MSL
hPa
Rain since
9am
mm
Dir  Spd
km/h
Gust
km/h
Spd
kts
Gust
kts
17/11:30pm 16.0 16.6 13.1 83 1.7 ENE 2 6 1 3 1020.1 1018.4 7.0
17/11:00pm 16.5 15.6 12.7 78 2.2 E 9 13 5 7 1020.1 1018.4 6.8
17/10:30pm 16.6 16.3 12.6 77 2.3 SE 6 9 3 5 1020.1 1018.4 6.8
17/10:00pm 16.7 17.1 12.5 76 2.4 SE 2 6 1 3 1020.1 1018.4 6.8
17/09:30pm 16.7 16.2 12.5 76 2.4 SSE 7 11 4 6 1019.5 1017.7 6.8
17/09:00pm 17.1 15.7 12.2 73 2.8 SE 11 15 6 8 1018.9 1017.2 6.8
17/08:30pm 17.5 14.4 12.2 71 3.0 ESE 20 28 11 15 1018.6 1016.9 6.8
17/08:00pm 17.5 15.5 12.6 73 2.8 ENE 15 24 8 13 1018.2 1016.5 6.8
17/07:30pm 17.8 16.5 13.7 77 2.4 ENE 13 24 7 13 1018.2 1016.5 6.8
17/07:00pm 17.9 17.1 14.0 78 2.3 E 11 19 6 10 1017.6 1015.8 6.8

Other Formats:

Comma delimited format used in spreadsheet applications
http://www.bom.gov.au/fwo/IDN60801/IDN60801.94925.axf

JavaScript Object Notation format (JSON) in row-major order
http://www.bom.gov.au/fwo/IDN60801/IDN60801.94925.json